Delphos, Iowa
Current Conditions -  °F | °C
As of 3:53 AM on Sunday 25 Jan 2015 (Local Time) from KLWD Reporting Station
Overcast Overcast  
Wind Chill:   Ceiling: 1500
Heat Index:   Visibility: 10mi
Dew Point:   Wind: 16mph
Humidity: 86%   Direction: 300°WNW
Pressure: 29.55"   Gusts: NA
Location:  40.6052°N, 94.3576°W
Report Text: KLWD 250953Z AUTO 30014KT 10SM BKN015 OVC020 06/04 A2955 RMK AO2 SLP008 T00610039
Loading
Personal Weather Stations






























Interactive Weather Map New forecast layout! Learn more

10-Day Weather Forecast

Advertisements
Track Severe Weather on mobile